Decoded Metar for EPKK (KRAKOW in POLAND) (IATA:KRK) | Meteo·Mobile Aviation Weather
aviador You're here:

EPKK Decoded Metar

KRAKOW in POLAND
Report Time2019-07-19 19:00:00
UTC Time2019-07-19 19:18:56
Flight Rules vfr VFR
Wind190° at 03 kt
W.Decomp.*RWY 25: 1.4 kt HW 2.7 kt LCW
Visibility9999 m
Phenomena:N/A
Clouds:N/A
Expected CloudBase > 2,400 ft AGL from Temp-Dew spread
CeilingNone
Temp19°C (ISA +6)
Dew Point13°C (68% RH)
AAT18.8°C
QNH1016 hPa
Density Alt1,529 ft
Elevation778 ft
Report Wrong Elevation
Raw Report
EPKK 191900Z 19003KT CAVOK 19/13 Q1016=

Extra information for EPKK:More info

Metar Taf Metar & Taf Last 4 Metars F.Rules Stats Wind Profile Meteogram Temp Stats Airport Information Weather charts Add Link Nearby VenuesMetar ALERT Operation Metar Decoded Social comments